Terminal Aerodrome Forecast
Issued by NWS

Home | Current Version | Previous Version | Text Only | Print | Product List | Glossary On
Versions: 1 2 3 4 5 6 7 8 9 10 11 12 13
000
FTUS46 KMTR 010500
TAFSTS
TAF
KSTS 010520Z 0106/0206 VRB03KT P6SM SKC
     FM010800 31004KT P6SM SKC
     FM011730 19007KT P6SM SKC
     FM020300 VRB03KT P6SM SKC=

USA.gov is the U.S. government's official web portal to all federal, state and local government web resources and services.